Latest Weather Observations for Port Lincoln Airport

IDS60801

Issued at 2:31 am CDT Friday 24 February 2017 (issued every 30 minutes, with the page automatically refreshed every 10 minutes)

About weather observations | Map of weather stations | Latest weather observations for SA | Other Formats
Station Details ID: 018192 Name: PORT LINCOLN AWS Lat: -34.60 Lon: 135.88 Height: 8.5 m
Data from the previous 72 hours. | See also: Recent months at Port Lincoln Airport
Date/Time
CDT
Temp
°C
App
Temp
°C
Dew
Point
°C
Rel
Hum
%
Delta-T
°C
Wind Press
QNH
hPa
Press
MSL
hPa
Rain since
9am
mm
Dir  Spd
km/h
Gust
km/h
Spd
kts
Gust
kts
24/02:00am 13.8 12.5 10.0 78 2.0 SW 7 9 4 5 1025.4 1025.4 0.0
24/01:30am 13.9 12.2 9.9 77 2.1 SSW 9 15 5 8 1025.5 1025.5 0.0
24/01:00am 14.4 12.9 10.4 77 2.1 SSW 9 11 5 6 1025.6 1025.6 0.0
24/12:30am 13.4 11.6 9.3 76 2.1 SW 9 11 5 6 1025.6 1025.6 0.0
24/12:00am 16.4 13.5 10.9 70 2.9 SSE 17 26 9 14 1025.6 1025.6 0.0
 
Date/Time
CDT
Temp
°C
App
Temp
°C
Dew
Point
°C
Rel
Hum
%
Delta-T
°C
Wind Press
QNH
hPa
Press
MSL
hPa
Rain since
9am
mm
Dir  Spd
km/h
Gust
km/h
Spd
kts
Gust
kts
23/11:30pm 15.0 13.7 10.0 72 2.6 SSW 7 11 4 6 1025.5 1025.5 0.0
23/11:00pm 15.1 12.9 10.7 75 2.3 SW 13 19 7 10 1025.4 1025.4 0.0
23/10:30pm 14.9 13.0 10.5 75 2.3 SW 11 15 6 8 1025.2 1025.2 0.0
23/10:00pm 15.9 13.8 11.3 74 2.5 SW 13 19 7 10 1025.0 1025.0 0.0
23/09:30pm 16.0 13.5 11.0 72 2.7 SSW 15 19 8 10 1024.8 1024.8 0.0
23/09:00pm 17.0 14.1 11.1 68 3.2 SSW 17 22 9 12 1024.4 1024.4 0.0
23/08:30pm 17.6 13.9 11.4 67 3.4 S 22 30 12 16 1024.0 1024.0 0.0
23/08:00pm 18.1 13.7 11.7 66 3.5 S 26 30 14 16 1023.6 1023.6 0.0
23/07:30pm 18.3 14.0 10.9 62 4.0 S 24 30 13 16 1023.2 1023.2 0.0
23/07:00pm 18.7 14.2 11.3 62 4.0 S 26 32 14 17 1022.9 1022.9 0.0
23/06:30pm 19.1 14.6 11.4 61 4.2 S 26 32 14 17 1022.7 1022.7 0.0
23/06:00pm 20.1 15.7 11.6 58 4.7 S 26 33 14 18 1022.4 1022.4 0.0
23/05:30pm 20.3 14.9 11.0 55 5.1 S 30 35 16 19 1022.1 1022.1 0.0
23/05:00pm 20.7 15.0 11.3 55 5.2 SSE 32 41 17 22 1021.7 1021.7 0.0
23/04:30pm 21.4 16.1 11.1 52 5.7 SSE 30 37 16 20 1021.7 1021.7 0.0
23/04:00pm 21.8 16.4 10.9 50 6.0 SSE 30 37 16 20 1021.7 1021.7 0.0
23/03:30pm 21.8 16.3 10.6 49 6.1 SSE 30 37 16 20 1021.6 1021.6 0.0
23/03:00pm 22.2 16.9 9.7 45 6.7 SSE 28 35 15 19 1021.7 1021.7 0.0
23/02:30pm 23.4 18.7 10.8 45 7.0 SE 26 33 14 18 1021.9 1021.9 0.0
23/02:00pm 22.1 17.5 11.2 50 6.0 SE 26 32 14 17 1021.8 1021.8 0.0
23/01:30pm 21.2 17.0 11.0 52 5.6 SSE 24 30 13 16 1021.9 1021.9 0.0
23/01:00pm 20.7 16.9 11.1 54 5.3 SE 22 28 12 15 1021.9 1021.9 0.0
23/12:30pm 20.6 16.8 11.0 54 5.2 SE 22 28 12 15 1021.9 1021.9 0.0
23/12:00pm 21.5 17.8 10.0 48 6.2 SE 20 28 11 15 1022.0 1022.0 0.0
23/11:30am 20.8 17.4 10.6 52 5.5 SE 19 26 10 14 1021.9 1021.9 0.0
23/11:00am 20.7 17.1 10.5 52 5.5 SSE 20 26 11 14 1021.9 1021.9 0.0
23/10:30am 19.5 16.8 10.5 56 4.8 SSW 15 20 8 11 1021.8 1021.8 0.0
23/10:00am 19.4 17.3 11.2 59 4.5 SW 13 19 7 10 1021.6 1021.6 0.0
23/09:30am 18.9 16.5 11.5 62 4.0 SW 15 20 8 11 1021.3 1021.3 0.0
23/09:00am 18.3 16.7 11.6 65 3.7 SSW 11 15 6 8 1021.0 1021.0 0.0
23/08:30am 16.8 15.8 12.3 75 2.5 WSW 9 11 5 6 1020.6 1020.6 0.0
23/08:00am 14.3 13.2 13.0 92 0.7 W 11 13 6 7 1020.1 1020.1 0.0
23/07:30am 11.5 9.5 10.1 91 0.7 W 11 13 6 7 1019.5 1019.5 0.0
23/07:00am 12.0 10.1 10.6 91 0.7 W 11 13 6 7 1019.1 1019.1 0.0
23/06:30am 12.2 10.8 10.8 91 0.7 W 9 11 5 6 1018.7 1018.7 0.0
23/06:00am 11.3 8.8 9.6 89 0.9 WSW 13 15 7 8 1018.2 1018.2 0.0
23/05:30am 12.3 10.9 10.9 91 0.7 WSW 9 11 5 6 1017.9 1017.9 0.0
23/05:00am 13.1 11.5 11.5 90 0.8 WSW 11 17 6 9 1017.8 1017.8 0.0
23/04:30am 13.1 11.2 11.8 92 0.7 WSW 13 15 7 8 1017.6 1017.6 0.0
23/04:00am 13.6 11.8 12.2 91 0.8 W 13 15 7 8 1017.6 1017.6 0.0
23/03:30am 14.8 13.0 13.3 91 0.8 WSW 15 19 8 10 1017.6 1017.6 0.0
23/03:00am 15.3 13.6 13.7 90 0.9 WSW 15 19 8 10 1017.5 1017.5 0.0
23/02:30am 15.7 13.8 14.1 90 0.9 WSW 17 20 9 11 1017.5 1017.5 0.0
23/02:00am 15.3 13.8 13.2 87 1.2 W 13 15 7 8 1017.7 1017.7 0.0
23/01:30am 16.4 14.9 14.1 86 1.3 W 15 20 8 11 1017.9 1017.9 0.0
23/01:00am 16.4 15.1 14.8 90 0.9 W 15 24 8 13 1018.0 1018.0 0.0
23/12:30am 14.9 13.8 13.1 89 1.0 WNW 11 15 6 8 1018.0 1018.0 0.0
23/12:00am 14.6 13.3 12.6 88 1.1 WNW 11 13 6 7 1017.9 1017.9 0.0
 
Date/Time
CDT
Temp
°C
App
Temp
°C
Dew
Point
°C
Rel
Hum
%
Delta-T
°C
Wind Press
QNH
hPa
Press
MSL
hPa
Rain since
9am
mm
Dir  Spd
km/h
Gust
km/h
Spd
kts
Gust
kts
22/11:30pm 14.5 12.5 12.7 89 1.0 NW 15 17 8 9 1017.7 1017.7 0.0
22/11:00pm 15.3 13.8 13.0 86 1.3 WNW 13 15 7 8 1017.7 1017.7 0.0
22/10:30pm 15.9 14.6 12.6 81 1.8 W 11 13 6 7 1017.5 1017.5 0.0
22/10:00pm 17.5 15.7 13.2 76 2.4 W 15 20 8 11 1017.0 1017.0 0.0
22/09:30pm 17.4 15.3 13.5 78 2.2 W 17 22 9 12 1016.5 1016.5 0.0
22/09:00pm 17.5 15.6 13.0 75 2.5 W 15 19 8 10 1016.0 1016.0 0.0
22/08:30pm 18.3 15.1 13.2 72 2.9 W 22 32 12 17 1015.3 1015.3 0.0
22/08:00pm 18.9 14.6 13.1 69 3.3 W 28 39 15 21 1014.8 1014.8 0.0
22/07:30pm 19.9 15.4 12.7 63 4.1 WNW 28 33 15 18 1014.3 1014.3 0.0
22/07:00pm 19.6 14.8 14.0 70 3.2 WNW 32 41 17 22 1014.1 1014.1 0.0
22/06:30pm 20.4 14.2 12.6 61 4.4 WNW 37 50 20 27 1013.6 1013.6 0.0
22/06:00pm 20.6 14.1 12.8 61 4.4 WNW 39 56 21 30 1013.1 1013.1 0.0
22/05:30pm 21.7 16.4 14.1 62 4.4 WNW 35 48 19 26 1012.7 1012.7 0.0
22/05:02pm 22.3 14.6 11.4 50 6.1 WNW 43 61 23 33 1012.3 1012.3 0.0
22/05:00pm 22.5 14.7 11.3 49 6.2 WNW 43 57 23 31 1012.3 1012.3 0.0
22/04:30pm 22.3 14.0 10.1 46 6.6 WNW 44 63 24 34 1012.1 1012.1 0.0
22/04:00pm 22.6 14.5 10.7 47 6.6 WNW 44 61 24 33 1011.8 1011.8 0.0
22/03:30pm 23.0 15.0 10.4 45 6.9 WNW 43 61 23 33 1011.8 1011.8 0.0
22/03:29pm 23.3 15.4 10.7 45 7.0 WNW 43 61 23 33 1011.8 1011.8 0.0
22/03:00pm 22.6 14.7 10.7 47 6.6 WNW 43 59 23 32 1011.7 1011.7 0.0
22/02:41pm 24.0 16.5 11.0 44 7.3 WNW 41 59 22 32 1011.7 1011.7 0.0
22/02:30pm 22.7 13.8 9.1 42 7.3 NW 46 59 25 32 1011.7 1011.7 0.0
22/02:17pm 23.6 16.1 11.0 45 7.0 WNW 41 59 22 32 1011.5 1011.5 0.0
22/02:00pm 24.5 15.7 10.8 42 7.6 NW 48 59 26 32 1011.3 1011.3 0.0
22/01:30pm 24.1 15.8 10.0 41 7.7 WNW 44 63 24 34 1011.1 1011.1 0.0
22/01:24pm 23.8 15.6 10.5 43 7.4 WNW 44 63 24 34 1011.1 1011.1 0.0
22/01:00pm 22.9 14.5 9.7 43 7.2 NW 44 61 24 33 1010.8 1010.8 0.0
22/12:33pm 23.2 15.1 8.5 39 7.8 WNW 41 59 22 32 1010.8 1010.8 0.0
22/12:30pm 24.8 16.9 9.5 38 8.4 WNW 41 54 22 29 1010.8 1010.8 0.0
22/12:03pm 23.2 14.8 8.9 40 7.7 NW 43 61 23 33 1010.6 1010.6 0.0
22/12:00pm 23.1 14.9 9.8 43 7.2 NW 43 59 23 32 1010.5 1010.5 0.0
22/11:46am 23.2 15.0 9.6 42 7.4 WNW 43 61 23 33 1010.6 1010.6 0.0
22/11:30am 22.7 14.3 9.5 43 7.1 WNW 44 57 24 31 1010.6 1010.6 0.0
22/11:04am 22.0 13.5 8.5 42 7.1 WNW 43 61 23 33 1010.9 1010.9 0.0
22/11:00am 22.7 14.5 9.8 44 7.0 WNW 43 54 23 29 1010.7 1010.7 0.0
22/10:30am 21.5 15.0 10.3 49 6.1 NW 35 48 19 26 1010.6 1010.6 0.0
22/10:00am 18.8 12.9 11.1 61 4.2 WNW 33 43 18 23 1010.2 1010.2 0.0
22/09:30am 19.6 13.1 8.3 48 5.9 WNW 32 54 17 29 1010.2 1010.2 0.0
22/09:00am 19.7 13.5 9.3 51 5.5 W 32 44 17 24 1010.1 1010.1 0.0
22/08:30am 19.6 13.3 10.9 57 4.7 W 35 56 19 30 1009.7 1009.7 0.0
22/08:11am 20.3 14.7 13.3 64 4.0 W 35 59 19 32 1009.3 1009.3 0.0
22/08:00am 20.2 14.9 14.1 68 3.5 W 35 46 19 25 1008.8 1008.8 0.0
22/07:40am 19.6 13.9 14.2 71 3.1 W 37 56 20 30 1008.4 1008.4 0.0
22/07:30am 19.7 14.9 14.7 73 2.9 W 33 44 18 24 1008.0 1008.0 0.0
22/07:17am 19.9 13.2 15.1 74 2.8 W 44 63 24 34 1007.3 1007.3 0.0
22/07:00am 20.2 12.6 14.8 71 3.2 W 48 63 26 34 1006.6 1006.6 0.0
22/06:55am 20.4 13.7 14.7 70 3.3 WSW 43 61 23 33 1006.1 1006.1 0.0
22/06:41am 21.3 15.8 14.7 66 3.9 W 37 52 20 28 1005.9 1005.9 0.0
22/06:30am 22.3 15.3 13.6 58 5.1 WNW 43 56 23 30 1005.6 1005.6 0.0
22/06:26am 23.2 16.6 12.5 51 6.1 NW 39 56 21 30 1005.7 1005.7 0.0
22/06:06am 24.5 16.0 3.2 25 10.4 NW 37 56 20 30 1004.8 1004.8 0.0
22/06:00am 24.9 16.0 3.0 24 10.7 NW 39 56 21 30 1004.7 1004.7 0.0
22/05:34am 26.7 17.3 2.6 21 11.8 N 41 59 22 32 1003.4 1003.4 0.0
22/05:30am 26.6 16.7 2.5 21 11.8 N 44 59 24 32 1003.3 1003.3 0.0
22/05:00am 26.7 17.8 3.2 22 11.6 N 39 57 21 31 1002.6 1002.6 0.0
22/04:32am 27.2 18.3 3.0 21 11.9 N 39 57 21 31 1002.6 1002.6 0.0
22/04:30am 27.4 18.1 3.2 21 12.1 N 41 57 22 31 1002.5 1002.5 0.0
22/04:16am 27.7 18.5 3.4 21 12.1 N 41 61 22 33 1002.6 1002.6 0.0
22/04:00am 28.0 19.2 3.7 21 12.2 N 39 56 21 30 1002.9 1002.9 0.0
22/03:37am 27.5 20.8 3.9 22 11.9 NNE 28 50 15 27 1003.4 1003.4 0.0
22/03:30am 23.6 19.3 6.8 34 8.7 NE 19 28 10 15 1003.6 1003.6 0.0
22/03:00am 22.8 18.3 7.0 36 8.2 NNE 20 28 11 15 1004.1 1004.1 0.0
22/02:30am 23.6 18.7 6.8 34 8.7 NNE 22 28 12 15 1004.5 1004.5 0.0
22/02:00am 23.8 18.5 7.0 34 8.7 NNE 24 30 13 16 1005.2 1005.2 0.0
22/01:30am 22.9 20.0 9.7 43 7.2 NE 15 20 8 11 1006.0 1006.0 0.0
22/01:00am 22.1 20.6 11.8 52 5.8 NE 11 15 6 8 1006.8 1006.8 0.0
22/12:30am 21.7 20.6 12.0 54 5.5 NE 9 13 5 7 1007.4 1007.4 0.0
22/12:00am 20.7 19.9 13.9 65 3.9 NNE 11 15 6 8 1007.6 1007.6 0.0
 
Date/Time
CDT
Temp
°C
App
Temp
°C
Dew
Point
°C
Rel
Hum
%
Delta-T
°C
Wind Press
QNH
hPa
Press
MSL
hPa
Rain since
9am
mm
Dir  Spd
km/h
Gust
km/h
Spd
kts
Gust
kts
21/11:30pm 20.1 20.0 13.8 67 3.6 NNE 7 11 4 6 1007.9 1007.9 0.0
21/11:00pm 20.7 20.6 13.4 63 4.2 NE 6 7 3 4 1008.3 1008.3 0.0
21/10:30pm 20.9 21.4 14.1 65 4.0 NNE 4 7 2 4 1008.6 1008.6 0.0
21/10:00pm 20.7 21.6 15.0 70 3.4 NNW 4 11 2 6 1009.0 1009.0 0.0
21/09:30pm 22.1 20.8 15.7 67 3.8 NE 17 22 9 12 1009.1 1009.1 0.0
21/09:00pm 22.5 21.1 14.6 61 4.7 NE 15 20 8 11 1009.3 1009.3 0.0
21/08:30pm 23.0 21.3 14.8 60 4.9 NE 17 24 9 13 1009.3 1009.3 0.0
21/08:00pm 23.4 20.7 15.5 61 4.7 NE 24 30 13 16 1009.2 1009.2 0.0
21/07:30pm 24.0 20.7 15.0 57 5.4 NE 26 35 14 19 1009.3 1009.3 0.0
21/07:00pm 24.3 19.9 14.1 53 6.0 NE 30 41 16 22 1009.3 1009.3 0.0
21/06:30pm 25.5 21.6 14.3 50 6.7 NE 28 35 15 19 1009.6 1009.6 0.0
21/06:00pm 26.1 22.4 14.9 50 6.7 NE 28 37 15 20 1009.8 1009.8 0.0
21/05:30pm 24.6 22.1 17.1 63 4.6 ENE 26 33 14 18 1010.1 1010.1 0.0
21/05:00pm 25.4 21.1 15.4 54 6.0 NE 32 41 17 22 1010.4 1010.4 0.0
21/04:30pm 26.0 22.7 16.0 54 6.1 ENE 28 33 15 18 1010.8 1010.8 0.0
21/04:00pm 27.6 24.6 15.9 49 7.2 ENE 26 33 14 18 1011.3 1011.3 0.0
21/03:30pm 26.6 22.6 16.2 52 6.4 ENE 32 39 17 21 1011.8 1011.8 0.0
21/03:00pm 27.0 23.7 16.9 54 6.3 ENE 30 35 16 19 1012.3 1012.3 0.0
21/02:30pm 25.7 21.4 15.4 53 6.2 ENE 32 39 17 21 1012.7 1012.7 0.0
21/02:00pm 25.2 21.3 16.4 58 5.4 ENE 32 37 17 20 1013.3 1013.3 0.0
21/01:30pm 24.1 19.8 15.9 60 5.0 ENE 33 39 18 21 1013.6 1013.6 0.0
21/01:00pm 24.6 20.4 15.8 58 5.3 ENE 32 41 17 22 1013.9 1013.9 0.0
21/12:30pm 25.4 21.5 15.4 54 6.0 ENE 30 35 16 19 1014.6 1014.6 0.0
21/12:00pm 24.6 20.8 15.8 58 5.3 ENE 30 37 16 20 1015.2 1015.2 0.0
21/11:30am 23.9 20.2 15.1 58 5.3 ENE 28 32 15 17 1015.8 1015.8 0.0
21/11:00am 23.0 19.6 14.8 60 4.9 ENE 26 33 14 18 1016.2 1016.2 0.0
21/10:30am 22.5 19.4 14.4 60 4.8 ENE 24 30 13 16 1016.6 1016.6 0.0
21/10:00am 21.6 19.0 13.8 61 4.5 NE 20 28 11 15 1016.9 1016.9 0.0
21/09:30am 21.3 18.9 14.5 65 4.0 NE 20 26 11 14 1017.2 1017.2 0.0
21/09:00am 20.0 18.8 13.9 68 3.5 NE 13 20 7 11 1017.4 1017.4 0.0
21/08:30am 18.0 17.4 13.5 75 2.5 NNE 9 11 5 6 1017.4 1017.4 0.0
21/08:00am 15.8 15.8 13.5 86 1.3 N 6 7 3 4 1017.1 1017.1 0.0
21/07:30am 13.8 13.1 11.5 86 1.2 NNW 6 7 3 4 1016.9 1016.9 0.0
21/07:00am 14.5 13.9 12.2 86 1.2 NNW 7 11 4 6 1016.6 1016.6 0.0
21/06:30am 14.8 13.7 12.1 84 1.5 NNE 9 15 5 8 1016.5 1016.5 0.0
21/06:00am 15.4 14.0 12.2 81 1.7 N 11 13 6 7 1016.4 1016.4 0.0
21/05:30am 17.2 14.4 13.1 77 2.3 NE 20 26 11 14 1016.4 1016.4 0.0
21/05:00am 17.2 13.9 12.9 76 2.4 ENE 22 30 12 16 1016.4 1016.4 0.0
21/04:30am 17.4 14.4 12.7 74 2.6 ENE 20 32 11 17 1016.5 1016.5 0.0
21/04:00am 17.4 13.7 12.7 74 2.6 ENE 24 32 13 17 1016.5 1016.5 0.0
21/03:30am 17.4 14.0 12.5 73 2.7 ENE 22 30 12 16 1017.0 1017.0 0.0
21/03:00am 17.4 14.1 12.7 74 2.6 ENE 22 28 12 15 1017.2 1017.2 0.0

Other Formats:

Comma delimited format used in spreadsheet applications
http://www.bom.gov.au/fwo/IDS60801/IDS60801.95661.axf

JavaScript Object Notation format (JSON) in row-major order
http://www.bom.gov.au/fwo/IDS60801/IDS60801.95661.json